Latest Weather Observations for Norah Head

IDN60801

Issued at 2:43 pm EDT Monday 8 March 2021 (issued every 10 minutes, with the page automatically refreshed every 10 minutes)

About weather observations | Map of weather stations | Latest weather observations for NSW | Other Formats
Station Details ID: 061366 Name: NORAH HEAD AWS Lat: -33.28 Lon: 151.58 Height: 18.8 m
Data from the previous 72 hours. | See also: Recent months at Norah Head
Date/Time
EDT
Temp
°C
App
Temp
°C
Dew
Point
°C
Rel
Hum
%
Delta-T
°C
Wind Press
QNH
hPa
Press
MSL
hPa
Rain since
9am
mm
Dir  Spd
km/h
Gust
km/h
Spd
kts
Gust
kts
08/02:30pm 24.6 25.3 20.5 78 2.7 NE 17 20 9 11 1009.5 1009.4 0.0
08/02:00pm 26.4 27.5 21.2 73 3.4 NE 17 19 9 10 1009.6 1009.5 0.0
08/01:30pm 28.9 31.1 23.3 72 3.8 NE 17 20 9 11 1009.7 1009.6 0.0
08/01:00pm 27.2 28.8 21.5 71 3.8 ENE 15 17 8 9 1010.0 1009.9 0.0
08/12:30pm 27.2 29.2 20.8 68 4.2 NE 11 15 6 8 1010.7 1010.6 0.0
08/12:00pm 27.6 30.9 21.9 71 3.8 NE 7 9 4 5 1011.2 1011.1 0.0
08/11:30am 27.0 30.1 21.5 72 3.7 NNE 7 9 4 5 1011.6 1011.5 0.0
08/11:00am 25.2 28.2 20.9 77 2.8 NNE 6 7 3 4 1012.0 1011.9 0.0
08/10:30am 23.2 26.1 19.8 81 2.2 NNE 4 6 2 3 1012.4 1012.3 0.0
08/10:00am 22.4 24.4 18.8 80 2.3 N 6 7 3 4 1012.5 1012.4 0.0
08/09:30am 22.9 24.9 19.1 79 2.4 NNE 7 11 4 6 1012.5 1012.4 0.0
08/09:00am 22.9 24.6 19.3 80 2.3 N 9 11 5 6 1012.3 1012.2 0.0
08/08:30am 22.1 24.5 19.6 86 1.6 NNW 6 13 3 7 1011.9 1011.8 0.0
08/08:00am 20.8 22.8 19.1 90 1.1 NNW 7 9 4 5 1012.1 1012.0 0.0
08/07:30am 19.8 22.1 18.5 92 0.8 NW 4 7 2 4 1012.0 1011.9 0.0
08/07:00am 19.4 21.4 17.9 91 0.9 NW 4 6 2 3 1011.6 1011.5 0.0
08/06:30am 19.8 21.4 18.3 91 0.9 NW 7 9 4 5 1011.6 1011.5 0.0
08/06:00am 19.9 21.1 18.2 90 1.1 NNW 9 13 5 7 1011.4 1011.3 0.0
08/05:30am 20.9 20.5 19.0 89 1.2 N 19 22 10 12 1011.1 1011.0 0.0
08/05:00am 20.7 20.3 18.8 89 1.2 N 19 22 10 12 1011.0 1010.9 0.0
08/04:30am 21.0 21.1 19.1 89 1.2 N 17 20 9 11 1011.0 1010.9 0.0
08/04:00am 21.0 21.0 18.9 88 1.3 N 17 20 9 11 1010.9 1010.8 0.0
08/03:30am 20.9 20.4 18.7 87 1.4 N 19 22 10 12 1011.1 1011.0 0.0
08/03:00am 21.0 20.4 18.8 87 1.4 N 20 24 11 13 1011.4 1011.3 0.0
08/02:30am 21.0 20.6 18.9 88 1.3 N 19 22 10 12 1011.8 1011.7 0.0
08/02:00am 21.2 20.9 19.1 88 1.3 N 19 24 10 13 1012.0 1011.9 0.0
08/01:30am 21.5 21.2 19.2 87 1.5 N 19 22 10 12 1012.1 1012.0 0.0
08/01:00am 21.4 20.9 19.0 86 1.5 N 20 24 11 13 1012.4 1012.3 0.0
08/12:30am 21.9 20.0 19.3 85 1.7 N 28 35 15 19 1012.7 1012.6 0.0
08/12:00am 22.2 19.5 19.6 85 1.7 NNE 33 41 18 22 1012.7 1012.6 0.0
 
Date/Time
EDT
Temp
°C
App
Temp
°C
Dew
Point
°C
Rel
Hum
%
Delta-T
°C
Wind Press
QNH
hPa
Press
MSL
hPa
Rain since
9am
mm
Dir  Spd
km/h
Gust
km/h
Spd
kts
Gust
kts
07/11:30pm 22.3 18.3 19.3 83 1.9 NNE 39 44 21 24 1012.8 1012.7 0.0
07/11:00pm 22.3 17.9 19.3 83 1.9 NNE 41 46 22 25 1013.0 1012.9 0.0
07/10:30pm 22.4 18.0 19.2 82 2.0 NNE 41 48 22 26 1013.0 1012.9 0.0
07/10:00pm 22.6 18.6 19.4 82 2.0 NNE 39 46 21 25 1013.1 1013.0 0.0
07/09:30pm 22.4 17.9 19.0 81 2.2 NNE 41 50 22 27 1012.8 1012.7 0.0
07/09:00pm 22.5 18.0 19.1 81 2.2 NNE 41 46 22 25 1012.7 1012.6 0.0
07/08:30pm 22.4 18.2 18.8 80 2.3 NE 39 44 21 24 1012.4 1012.3 0.0
07/08:00pm 22.2 18.4 18.2 78 2.5 NE 35 41 19 22 1012.1 1012.0 0.0
07/07:30pm 22.2 18.7 18.0 77 2.6 NE 33 37 18 20 1011.9 1011.8 0.0
07/07:00pm 22.2 18.6 17.3 74 3.0 NE 32 37 17 20 1011.9 1011.8 0.0
07/06:30pm 22.6 19.5 17.5 73 3.2 NE 30 37 16 20 1011.9 1011.8 0.0
07/06:00pm 23.0 19.7 17.0 69 3.7 NE 30 33 16 18 1011.9 1011.8 0.0
07/05:30pm 24.2 22.1 17.2 65 4.3 NE 24 28 13 15 1012.0 1011.9 0.0
07/05:00pm 25.4 23.9 17.6 62 4.9 NE 22 26 12 14 1012.0 1011.9 0.0
07/04:30pm 25.6 24.1 17.8 62 4.9 ENE 22 28 12 15 1012.1 1012.0 0.0
07/04:00pm 24.3 22.4 16.6 62 4.7 ENE 22 26 12 14 1012.2 1012.1 0.0
07/03:30pm 24.6 23.0 16.6 61 4.9 ENE 20 28 11 15 1012.5 1012.4 0.0
07/03:00pm 24.5 23.0 16.2 60 5.1 ENE 19 22 10 12 1012.8 1012.7 0.0
07/02:30pm 25.2 23.6 16.1 57 5.6 ENE 19 20 10 11 1013.1 1013.0 0.0
07/02:00pm 26.3 26.0 18.2 61 5.1 ENE 17 22 9 12 1013.5 1013.4 0.0
07/01:30pm 25.8 25.4 18.0 62 4.9 ENE 17 20 9 11 1013.8 1013.7 0.0
07/01:00pm 25.5 25.5 17.2 60 5.2 ENE 13 17 7 9 1014.2 1014.1 0.0
07/12:30pm 25.8 26.1 16.9 58 5.5 ENE 11 15 6 8 1014.6 1014.5 0.0
07/12:00pm 25.9 26.8 16.7 57 5.7 NE 7 11 4 6 1015.1 1015.0 0.0
07/11:30am 24.4 25.3 16.1 60 5.1 NE 6 9 3 5 1015.5 1015.4 0.0
07/11:00am 23.3 24.2 15.1 60 4.9 NNE 4 6 2 3 1015.7 1015.6 0.0
07/10:30am 23.2 24.4 15.8 63 4.5 N 4 6 2 3 1015.8 1015.7 0.0
07/10:00am 23.0 24.4 16.3 66 4.1 NNW 4 7 2 4 1015.8 1015.7 0.0
07/09:30am 21.8 23.5 16.3 71 3.3 W 2 7 1 4 1015.5 1015.4 0.0
07/09:00am 20.5 21.3 16.3 77 2.5 W 7 11 4 6 1015.7 1015.6 0.2
07/08:30am 19.6 20.0 16.3 81 2.0 W 9 13 5 7 1015.1 1015.0 0.2
07/08:00am 18.2 17.6 15.6 85 1.5 W 13 17 7 9 1015.1 1015.0 0.2
07/07:30am 17.5 16.5 15.5 88 1.2 W 15 17 8 9 1014.8 1014.7 0.2
07/07:00am 17.6 17.4 15.8 89 1.1 W 11 15 6 8 1014.6 1014.5 0.2
07/06:30am 17.6 17.7 15.6 88 1.2 WSW 9 15 5 8 1014.2 1014.1 0.2
07/06:00am 18.0 17.8 15.8 87 1.3 W 11 15 6 8 1014.0 1013.9 0.2
07/05:30am 18.3 18.1 15.7 85 1.5 W 11 13 6 7 1014.0 1013.9 0.2
07/05:00am 18.6 18.3 15.5 82 1.8 W 11 15 6 8 1013.8 1013.7 0.2
07/04:30am 19.4 20.6 15.9 80 2.1 SW 4 9 2 5 1014.2 1014.1 0.2
07/04:00am 18.8 19.1 15.1 79 2.2 WSW 7 9 4 5 1014.1 1014.0 0.2
07/03:30am 19.7 19.9 14.7 73 2.9 SW 7 13 4 7 1014.0 1013.9 0.2
07/03:00am 20.3 20.2 14.9 71 3.2 SE 9 13 5 7 1014.4 1014.3 0.2
07/02:30am 20.1 18.9 15.1 73 2.9 SE 15 19 8 10 1014.1 1014.0 0.2
07/02:00am 20.0 18.1 15.2 74 2.8 SE 19 24 10 13 1014.3 1014.2 0.0
07/01:30am 20.1 18.6 15.3 74 2.8 SE 17 24 9 13 1014.4 1014.3 0.0
07/01:00am 20.3 19.2 15.3 73 3.0 SE 15 22 8 12 1014.8 1014.7 0.0
07/12:30am 20.4 19.8 14.7 70 3.3 SE 11 15 6 8 1014.8 1014.7 0.0
07/12:00am 20.4 18.4 15.0 71 3.2 SE 19 22 10 12 1015.0 1014.9 0.0
 
Date/Time
EDT
Temp
°C
App
Temp
°C
Dew
Point
°C
Rel
Hum
%
Delta-T
°C
Wind Press
QNH
hPa
Press
MSL
hPa
Rain since
9am
mm
Dir  Spd
km/h
Gust
km/h
Spd
kts
Gust
kts
06/11:30pm 20.4 18.3 14.7 70 3.3 SE 19 24 10 13 1014.7 1014.6 0.0
06/11:00pm 20.3 18.1 14.9 71 3.2 SE 20 30 11 16 1014.7 1014.6 0.0
06/10:30pm 20.7 18.6 15.3 71 3.2 SSE 20 28 11 15 1014.6 1014.5 0.0
06/10:00pm 20.5 17.9 14.8 70 3.3 SSE 22 28 12 15 1014.5 1014.4 0.0
06/09:30pm 20.8 17.8 14.9 69 3.5 SSE 24 32 13 17 1014.4 1014.3 0.0
06/09:00pm 20.8 18.3 15.1 70 3.4 SSE 22 32 12 17 1014.4 1014.3 0.0
06/08:30pm 20.5 17.5 14.8 70 3.3 SSE 24 32 13 17 1013.8 1013.7 0.0
06/08:00pm 20.5 17.7 15.3 72 3.1 SSE 24 30 13 16 1013.3 1013.2 0.0
06/07:30pm 20.7 17.1 15.3 71 3.2 SSE 28 33 15 18 1012.9 1012.8 0.0
06/07:00pm 20.9 17.9 14.8 68 3.6 SSE 24 30 13 16 1012.8 1012.7 0.0
06/06:30pm 21.2 18.0 15.3 69 3.5 SSE 26 33 14 18 1012.5 1012.4 0.0
06/06:00pm 21.5 18.2 15.1 67 3.8 SSE 26 32 14 17 1012.8 1012.7 0.0
06/05:30pm 22.1 18.2 15.5 66 3.9 SSE 30 35 16 19 1012.1 1012.0 0.0
06/05:00pm 21.6 18.3 15.0 66 3.9 S 26 30 14 16 1012.1 1012.0 0.0
06/04:30pm 21.9 18.6 15.0 65 4.1 S 26 33 14 18 1011.9 1011.8 0.0
06/04:00pm 22.1 18.3 14.7 63 4.4 S 28 37 15 20 1011.9 1011.8 0.0
06/03:30pm 22.5 19.2 15.1 63 4.4 S 26 33 14 18 1011.9 1011.8 0.0
06/03:00pm 22.0 19.7 15.6 67 3.8 S 22 32 12 17 1012.0 1011.9 0.0
06/02:30pm 21.9 19.0 14.0 61 4.6 S 22 30 12 16 1012.3 1012.2 0.0
06/02:00pm 22.1 18.9 14.2 61 4.6 S 24 32 13 17 1012.3 1012.2 0.0
06/01:30pm 22.4 19.8 13.7 58 5.1 S 20 26 11 14 1012.6 1012.5 0.0
06/01:00pm 22.9 19.6 13.9 57 5.3 S 24 32 13 17 1012.4 1012.3 0.0
06/12:30pm 22.3 19.5 14.2 60 4.7 S 22 32 12 17 1012.7 1012.6 0.0
06/12:00pm 20.9 17.2 13.8 64 4.1 S 26 33 14 18 1013.0 1012.9 0.0
06/11:30am 20.8 16.9 14.5 67 3.7 S 28 35 15 19 1012.8 1012.7 0.0
06/11:00am 20.6 17.3 14.9 70 3.4 S 26 35 14 19 1012.8 1012.7 0.0
06/10:30am 20.0 18.7 14.8 72 3.0 SSW 15 24 8 13 1012.9 1012.8 0.0
06/10:00am 19.4 18.3 15.3 77 2.4 SSW 15 22 8 12 1012.7 1012.6 0.0
06/09:30am 18.9 18.1 15.2 79 2.2 SW 13 22 7 12 1012.7 1012.6 0.0
06/09:00am 18.6 18.3 15.5 82 1.8 SW 11 20 6 11 1012.5 1012.4 0.4
06/08:30am 17.7 17.4 15.5 87 1.3 WSW 11 20 6 11 1012.5 1012.4 0.4
06/08:00am 17.4 17.2 15.7 90 1.0 WSW 11 20 6 11 1011.9 1011.8 0.4
06/07:30am 17.3 17.1 15.6 90 1.0 WSW 11 17 6 9 1011.4 1011.3 0.2
06/07:00am 17.4 16.6 15.2 87 1.3 WSW 13 19 7 10 1011.6 1011.5 0.2
06/06:30am 18.7 18.7 15.2 80 2.1 SW 9 17 5 9 1010.7 1010.6 0.2
06/06:00am 20.1 18.0 15.3 74 2.8 S 20 30 11 16 1010.2 1010.1 0.0
06/05:30am 20.4 18.0 15.4 73 3.0 S 22 30 12 16 1010.1 1010.0 0.0
06/05:00am 20.0 16.3 15.0 73 2.9 S 28 35 15 19 1009.9 1009.8 0.0
06/04:30am 19.7 18.1 15.1 75 2.7 S 17 32 9 17 1010.1 1010.0 0.0
06/04:00am 19.8 16.4 15.7 77 2.4 S 28 37 15 20 1010.0 1009.9 0.0
06/03:30am 20.1 16.2 15.5 75 2.7 S 30 39 16 21 1009.9 1009.8 0.0
06/03:00am 19.9 16.5 15.7 77 2.5 S 28 41 15 22 1009.9 1009.8 0.0
06/02:30am 19.9 15.6 15.5 76 2.6 S 32 39 17 21 1010.1 1010.0 0.0
06/02:00am 20.1 17.0 15.5 75 2.7 S 26 33 14 18 1010.2 1010.1 0.0
06/01:30am 20.6 17.2 15.8 74 2.9 S 28 39 15 21 1010.4 1010.3 0.0
06/01:00am 20.2 17.3 15.2 73 3.0 S 24 35 13 19 1010.5 1010.4 0.0
06/12:30am 20.3 17.2 15.5 74 2.8 SSE 26 35 14 19 1010.5 1010.4 0.0
06/12:00am 20.1 17.7 15.3 74 2.8 S 22 30 12 16 1011.1 1011.0 0.0
 
Date/Time
EDT
Temp
°C
App
Temp
°C
Dew
Point
°C
Rel
Hum
%
Delta-T
°C
Wind Press
QNH
hPa
Press
MSL
hPa
Rain since
9am
mm
Dir  Spd
km/h
Gust
km/h
Spd
kts
Gust
kts
05/11:30pm 20.1 16.1 15.3 74 2.8 S 30 39 16 21 1010.8 1010.7 0.0
05/11:00pm 20.6 16.3 15.4 72 3.1 S 32 41 17 22 1010.6 1010.5 0.0
05/10:30pm 20.5 16.9 15.3 72 3.1 SSE 28 35 15 19 1010.6 1010.5 0.0
05/10:00pm 21.0 16.7 15.8 72 3.1 S 33 43 18 23 1010.4 1010.3 0.0
05/09:49pm 21.2 17.8 15.7 71 3.3 SSE 28 37 15 20 1010.4 1010.3 0.0
05/09:44pm 21.1 17.2 15.4 70 3.4 S 30 41 16 22 1012.5 1012.4 0.0
05/09:30pm 21.1 16.8 15.4 70 3.4 S 32 43 17 23 1010.5 1010.4 0.0
05/09:00pm 21.0 16.2 15.5 71 3.3 SSE 35 41 19 22 1010.5 1010.4 0.0
05/08:30pm 20.9 16.5 15.2 70 3.4 S 32 39 17 21 1009.9 1009.8 0.0
05/08:00pm 21.0 17.6 15.8 72 3.1 SSE 28 33 15 18 1008.9 1008.9 0.0
05/07:30pm 20.9 17.3 15.2 70 3.4 SSE 28 37 15 20 1008.6 1008.6 0.0
05/07:00pm 20.9 16.9 15.2 70 3.4 SSE 30 37 16 20 1008.5 1008.5 0.0
05/06:30pm 20.9 16.8 15.0 69 3.5 S 30 39 16 21 1008.3 1008.3 0.0
05/06:00pm 21.2 16.4 15.5 70 3.4 SSE 35 43 19 23 1007.9 1007.9 0.0
05/05:30pm 21.3 16.4 15.4 69 3.5 S 35 43 19 23 1007.9 1007.9 0.0
05/05:00pm 21.3 16.4 15.4 69 3.5 S 35 43 19 23 1007.7 1007.7 0.0
05/04:30pm 21.5 16.8 15.8 70 3.4 S 35 43 19 23 1007.7 1007.7 0.0
05/04:00pm 21.7 16.4 15.3 67 3.8 S 37 46 20 25 1007.8 1007.8 0.0
05/03:30pm 21.8 15.6 15.9 69 3.5 S 43 48 23 26 1007.8 1007.8 0.0
05/03:00pm 22.4 16.6 16.0 67 3.9 S 41 52 22 28 1007.7 1007.7 0.0

Other formats

Comma delimited format used in spreadsheet applications
http://www.bom.gov.au/fwo/IDN60801/IDN60801.95770.axf

JavaScript Object Notation format (JSON) in row-major order
http://www.bom.gov.au/fwo/IDN60801/IDN60801.95770.json

Data quality

Most of these data are generated automatically and are frequently updated. Quality checks on data are not normally performed. It is possible for incorrect values to appear. Refer to information at About Latest Weather Observations and please check the disclaimer before using these data.